Time;durP1;ratioP1;P1;durP2;ratioP2;P2;SDS_P1;SDS_P2;PMS_P1;PMS_P2;Temp;Humidity;BMP_temperature;BMP_pressure;BME280_temperature;BME280_humidity;BME280_pressure;Samples;Min_cycle;Max_cycle;Signal;HPM_P1;HPM_P2
2022/11/03 05:30:14;;;;;;;5.53;1.30;;;14.80;81.50;;;;;;6027427;23;20118;-76
2022/11/03 05:32:40;;;;;;;4.70;1.30;;;14.80;81.50;;;;;;5000446;28;20066;-76
2022/11/03 05:35:19;;;;;;;8.10;1.60;;;14.80;81.50;;;;;;4978055;28;20049;-75
2022/11/03 05:37:45;;;;;;;5.38;1.70;;;14.80;81.80;;;;;;4989014;28;20034;-76
2022/11/03 05:40:19;;;;;;;6.95;1.30;;;14.80;81.90;;;;;;4998736;28;20109;-77
2022/11/03 05:42:46;;;;;;;5.40;1.50;;;14.80;82.10;;;;;;4987036;28;20030;-76
2022/11/03 05:45:19;;;;;;;4.47;1.40;;;14.80;82.10;;;;;;5015387;28;20834;-76
2022/11/03 05:47:46;;;;;;;2.42;1.20;;;14.70;82.30;;;;;;5015617;28;20037;-77
2022/11/03 05:50:25;;;;;;;5.68;2.25;;;14.70;82.60;;;;;;5010985;28;20386;-77
2022/11/03 05:52:55;;;;;;;5.38;2.28;;;14.80;82.70;;;;;;4994712;28;20018;-77
2022/11/03 05:55:30;;;;;;;4.80;1.73;;;14.80;82.70;;;;;;4995706;28;20027;-76
2022/11/03 05:58:01;;;;;;;8.00;1.55;;;14.80;82.70;;;;;;4996037;28;20097;-77
2022/11/03 06:00:32;;;;;;;6.97;1.70;;;14.80;82.90;;;;;;4993252;28;20037;-76
2022/11/03 06:02:59;;;;;;;4.35;1.42;;;14.80;83.10;;;;;;5007876;28;20023;-76
2022/11/03 06:05:26;;;;;;;4.07;1.70;;;14.80;83.20;;;;;;4978101;28;20042;-77
2022/11/03 06:07:54;;;;;;;2.42;1.60;;;14.80;83.30;;;;;;4994786;28;20165;-77
2022/11/03 06:10:22;;;;;;;5.13;1.73;;;14.80;83.40;;;;;;4996704;28;20068;-77
2022/11/03 06:12:48;;;;;;;5.85;1.98;;;14.70;83.50;;;;;;5016967;28;20017;-77
2022/11/03 06:15:34;;;;;;;4.70;1.73;;;14.70;83.60;;;;;;5019420;28;20373;-81
2022/11/03 06:18:09;;;;;;;7.90;1.85;;;14.80;83.80;;;;;;5006706;28;20034;-80
2022/11/03 06:20:35;;;;;;;3.45;1.52;;;14.90;83.70;;;;;;5023006;28;20036;-78
2022/11/03 06:23:01;;;;;;;9.77;2.15;;;14.90;83.70;;;;;;5024423;28;20026;-80
2022/11/03 06:25:35;;;;;;;9.55;1.83;;;14.90;83.60;;;;;;5001820;28;20034;-78
2022/11/03 06:28:21;;;;;;;4.10;1.80;;;14.90;83.80;;;;;;5001771;28;20080;-79
2022/11/03 06:30:48;;;;;;;9.65;1.92;;;14.90;83.80;;;;;;5007813;28;20101;-86
2022/11/03 06:33:22;;;;;;;8.85;2.38;;;14.90;83.90;;;;;;4999616;28;20022;-84
2022/11/03 06:35:50;;;;;;;6.68;1.70;;;14.90;84.00;;;;;;4999441;28;20113;-80
2022/11/03 06:38:24;;;;;;;8.13;2.10;;;14.90;84.10;;;;;;5018604;28;20018;-80
2022/11/03 06:40:51;;;;;;;8.40;2.08;;;14.90;84.20;;;;;;5019068;28;20084;-80
2022/11/03 06:43:46;;;;;;;7.70;2.97;;;14.90;84.30;;;;;;5009981;28;20026;-80
2022/11/03 06:46:25;;;;;;;8.63;2.20;;;14.90;84.40;;;;;;4999055;28;20459;-80
2022/11/03 06:48:59;;;;;;;6.70;2.30;;;15.00;84.40;;;;;;5017474;28;20034;-81
2022/11/03 06:51:29;;;;;;;8.60;2.08;;;14.90;84.50;;;;;;5018820;28;20030;-79
2022/11/03 06:53:58;;;;;;;5.13;2.17;;;14.90;84.60;;;;;;5018095;28;20141;-84
2022/11/03 06:56:30;;;;;;;3.30;2.20;;;14.90;84.70;;;;;;5003356;28;20041;-89
2022/11/03 06:58:57;;;;;;;11.75;2.33;;;15.00;84.60;;;;;;4989025;28;20115;-82
2022/11/03 07:01:31;;;;;;;10.52;2.95;;;15.00;84.50;;;;;;5000043;28;20027;-85
2022/11/03 07:04:01;;;;;;;8.48;2.75;;;15.00;84.40;;;;;;5017320;28;20122;-79
2022/11/03 07:06:35;;;;;;;10.15;2.47;;;15.00;84.30;;;;;;5015631;28;20036;-80
2022/11/03 07:09:03;;;;;;;10.15;2.75;;;15.00;84.20;;;;;;5016391;28;20381;-79
2022/11/03 07:11:50;;;;;;;10.57;2.45;;;15.00;84.20;;;;;;5014859;28;20030;-79
2022/11/03 07:14:30;;;;;;;11.68;2.38;;;15.00;84.20;;;;;;4995899;28;20026;-79
2022/11/03 07:17:03;;;;;;;5.13;2.13;;;15.00;84.00;;;;;;5006833;28;20024;-78
2022/11/03 07:19:33;;;;;;;4.88;2.20;;;15.00;84.10;;;;;;4995133;28;20064;-78
2022/11/03 07:22:21;;;;;;;6.25;2.55;;;15.00;84.10;;;;;;4992911;28;20101;-79
2022/11/03 07:24:51;;;;;;;7.10;2.25;;;15.00;84.00;;;;;;4989395;28;20038;-78
2022/11/03 07:27:25;;;;;;;5.13;2.22;;;15.00;83.70;;;;;;5015859;28;20032;-81
2022/11/03 07:29:56;;;;;;;6.00;2.45;;;15.10;83.80;;;;;;5006971;28;20409;-87
2022/11/03 07:32:28;;;;;;;7.15;2.38;;;15.00;83.50;;;;;;5002311;28;20149;-82
2022/11/03 07:35:23;;;;;;;6.80;1.98;;;15.10;83.50;;;;;;4999334;28;20036;-86
2022/11/03 07:37:50;;;;;;;7.18;1.88;;;15.10;83.30;;;;;;5013128;28;20037;-80
2022/11/03 07:40:24;;;;;;;6.13;2.42;;;15.10;83.30;;;;;;5008807;28;20084;-83
2022/11/03 07:42:51;;;;;;;6.20;1.80;;;15.20;83.10;;;;;;5010856;28;20030;-84
2022/11/03 07:45:38;;;;;;;4.22;1.90;;;15.20;83.00;;;;;;5008767;28;20381;-84
2022/11/03 07:48:19;;;;;;;2.47;1.35;;;15.20;82.90;;;;;;5006952;28;20042;-85
2022/11/03 07:50:46;;;;;;;6.50;2.05;;;15.20;82.80;;;;;;5000397;28;20480;-83
2022/11/03 07:53:34;;;;;;;6.80;2.00;;;15.20;82.70;;;;;;5012952;28;20392;-82
2022/11/03 07:56:00;;;;;;;3.92;1.63;;;15.20;82.70;;;;;;4994601;28;20061;-82
2022/11/03 07:58:38;;;;;;;4.70;2.25;;;15.20;82.70;;;;;;5014158;28;20018;-86
2022/11/03 08:01:25;;;;;;;9.35;1.90;;;15.20;83.00;;;;;;5014003;28;20118;-89
2022/11/03 08:03:53;;;;;;;7.90;2.75;;;15.20;83.30;;;;;;4995480;28;20067;-83
2022/11/03 08:06:19;;;;;;;3.20;1.80;;;15.10;83.50;;;;;;5013333;28;20044;-81
2022/11/03 08:08:46;;;;;;;5.35;2.22;;;15.20;83.70;;;;;;4996684;28;20065;-83
2022/11/03 08:11:12;;;;;;;3.95;2.60;;;15.20;83.80;;;;;;5011888;28;20034;-85
2022/11/03 08:13:37;;;;;;;9.73;1.63;;;15.10;84.00;;;;;;4999834;28;20057;-84
2022/11/03 08:16:03;;;;;;;7.72;2.30;;;15.10;84.40;;;;;;5012528;28;20034;-81
2022/11/03 08:18:29;;;;;;;3.60;1.52;;;15.10;84.60;;;;;;5010126;28;20667;-79
2022/11/03 08:20:54;;;;;;;4.57;1.55;;;15.10;84.80;;;;;;5013681;28;20034;-82
2022/11/03 08:23:20;;;;;;;4.60;1.75;;;15.00;84.50;;;;;;5008411;28;20040;-81
2022/11/03 08:25:46;;;;;;;3.30;1.27;;;15.00;84.70;;;;;;5022532;28;20033;-84
2022/11/03 08:28:11;;;;;;;3.75;1.10;;;15.10;84.60;;;;;;5010303;28;20107;-82
2022/11/03 08:30:37;;;;;;;2.78;0.70;;;14.80;82.70;;;;;;4988374;28;20041;-82
2022/11/03 08:33:02;;;;;;;1.67;0.65;;;14.70;83.20;;;;;;4990633;28;20046;-82
2022/11/03 08:35:28;;;;;;;1.75;0.57;;;14.60;82.30;;;;;;4983112;28;20081;-79
2022/11/03 08:37:54;;;;;;;1.10;0.77;;;14.60;82.30;;;;;;5011121;28;20779;-82
2022/11/03 08:40:19;;;;;;;1.45;0.80;;;14.60;82.10;;;;;;5015225;28;20041;-81
2022/11/03 08:42:45;;;;;;;0.98;0.63;;;14.60;82.00;;;;;;5013552;28;20037;-81
2022/11/03 08:45:10;;;;;;;3.30;0.88;;;14.60;82.10;;;;;;4996614;28;20031;-80
2022/11/03 08:47:36;;;;;;;1.95;0.70;;;14.60;81.70;;;;;;4977768;28;20038;-80
2022/11/03 08:50:03;;;;;;;2.70;0.50;;;14.60;81.70;;;;;;4995430;28;20030;-81
2022/11/03 08:52:29;;;;;;;0.93;0.52;;;14.50;81.30;;;;;;4996434;28;20101;-81
2022/11/03 08:54:55;;;;;;;2.15;0.68;;;14.50;81.60;;;;;;4996042;28;20057;-81
2022/11/03 08:57:20;;;;;;;0.40;0.30;;;14.50;81.30;;;;;;4997132;28;20031;-81
2022/11/03 08:59:46;;;;;;;1.10;0.77;;;14.50;80.90;;;;;;5000589;28;20018;-81
2022/11/03 09:02:11;;;;;;;2.22;0.70;;;14.50;81.30;;;;;;4997006;28;20034;-81
2022/11/03 09:04:37;;;;;;;2.15;0.95;;;14.60;81.30;;;;;;5003356;28;20031;-81
2022/11/03 09:07:03;;;;;;;1.65;0.80;;;14.60;81.60;;;;;;4994827;28;20481;-81
2022/11/03 09:09:28;;;;;;;4.50;0.93;;;14.60;81.40;;;;;;4977351;28;20054;-81
2022/11/03 09:11:54;;;;;;;2.20;1.10;;;14.60;81.00;;;;;;5010180;28;20040;-81
2022/11/03 09:14:20;;;;;;;3.83;1.08;;;14.60;81.20;;;;;;5014762;28;20034;-81
2022/11/03 09:16:45;;;;;;;1.00;0.70;;;14.60;81.10;;;;;;4996835;28;20030;-81
2022/11/03 09:19:11;;;;;;;1.80;0.57;;;14.50;80.90;;;;;;4978554;28;20023;-81
2022/11/03 09:21:36;;;;;;;2.47;0.73;;;14.60;81.30;;;;;;4978955;28;20062;-81
2022/11/03 09:24:03;;;;;;;0.90;0.50;;;14.50;81.40;;;;;;4995319;28;20026;-81
2022/11/03 09:26:28;;;;;;;1.45;0.75;;;14.50;81.50;;;;;;5010799;28;20033;-81
2022/11/03 09:28:54;;;;;;;1.45;0.70;;;14.50;81.60;;;;;;5016119;28;20038;-81
2022/11/03 09:31:19;;;;;;;1.63;0.82;;;14.50;81.70;;;;;;5005711;28;20416;-81
2022/11/03 09:33:45;;;;;;;3.95;1.27;;;14.10;82.10;;;;;;4981590;28;20058;-82
2022/11/03 09:36:11;;;;;;;2.10;0.60;;;13.90;83.50;;;;;;4976852;28;20482;-81
2022/11/03 09:38:36;;;;;;;4.38;1.20;;;13.90;83.60;;;;;;4977332;28;20030;-82
2022/11/03 09:41:04;;;;;;;4.80;1.38;;;13.90;83.60;;;;;;4976759;28;20133;-81
2022/11/03 09:43:31;;;;;;;3.33;1.00;;;14.00;83.60;;;;;;4959419;28;20130;-80
2022/11/03 09:45:57;;;;;;;4.28;1.30;;;14.10;83.30;;;;;;4976734;28;20113;-81
2022/11/03 09:48:23;;;;;;;1.25;0.90;;;14.10;83.10;;;;;;4976987;28;20038;-81
2022/11/03 09:50:52;;;;;;;1.58;0.77;;;14.10;83.10;;;;;;4976505;28;20034;-80
2022/11/03 09:53:19;;;;;;;1.42;0.80;;;14.10;82.90;;;;;;4977516;28;20106;-81
2022/11/03 09:55:45;;;;;;;2.67;1.17;;;14.20;82.70;;;;;;4980827;28;20027;-81
2022/11/03 09:58:15;;;;;;;2.13;0.85;;;14.20;82.80;;;;;;4984215;28;20019;-81
2022/11/03 10:00:41;;;;;;;1.92;0.70;;;14.20;82.70;;;;;;4999207;28;20026;-80
2022/11/03 10:03:11;;;;;;;2.10;0.95;;;14.20;82.50;;;;;;4999618;28;20061;-81
2022/11/03 10:05:38;;;;;;;3.13;1.25;;;14.20;82.60;;;;;;4998839;28;20084;-80
2022/11/03 10:08:15;;;;;;;1.50;0.82;;;14.20;82.60;;;;;;5000329;28;20030;-81
2022/11/03 10:10:41;;;;;;;1.73;0.93;;;14.20;82.60;;;;;;4999712;28;20022;-80
2022/11/03 10:13:12;;;;;;;1.63;1.17;;;14.30;82.60;;;;;;4981718;28;20038;-80
2022/11/03 10:15:38;;;;;;;3.88;1.13;;;14.30;82.10;;;;;;4980612;28;20022;-81
2022/11/03 10:18:05;;;;;;;4.07;1.05;;;14.30;82.30;;;;;;4962795;28;20030;-80
2022/11/03 10:20:30;;;;;;;1.75;0.60;;;14.30;82.30;;;;;;4980134;28;20058;-81
2022/11/03 10:22:56;;;;;;;2.05;1.10;;;14.40;82.30;;;;;;4980432;28;20027;-81
2022/11/03 10:25:38;;;;;;;1.83;1.02;;;14.30;81.90;;;;;;4982718;28;20043;-81
2022/11/03 10:28:23;;;;;;;3.60;0.85;;;14.40;81.80;;;;;;4980199;28;20045;-81
2022/11/03 10:30:59;;;;;;;1.60;1.05;;;14.50;81.70;;;;;;4983781;28;20078;-81
2022/11/03 10:33:32;;;;;;;1.98;1.35;;;14.50;81.70;;;;;;4999929;28;20033;-81
2022/11/03 10:35:59;;;;;;;1.15;0.80;;;14.60;81.50;;;;;;4999527;28;20030;-80
2022/11/03 10:38:30;;;;;;;3.17;1.20;;;14.70;81.60;;;;;;4999443;28;20515;-80
2022/11/03 10:41:08;;;;;;;3.92;0.80;;;14.70;81.50;;;;;;4981965;28;20026;-80
2022/11/03 10:43:34;;;;;;;3.17;1.15;;;14.70;81.50;;;;;;4999560;28;20039;-81
2022/11/03 10:46:20;;;;;;;1.10;0.80;;;14.70;81.30;;;;;;4999530;28;20114;-81
2022/11/03 10:49:01;;;;;;;3.28;1.15;;;14.60;81.50;;;;;;4981756;28;20069;-81
2022/11/03 10:51:27;;;;;;;4.95;1.42;;;14.50;81.80;;;;;;4981863;28;20109;-81
2022/11/03 10:53:54;;;;;;;2.30;1.20;;;14.40;81.60;;;;;;4998802;28;20543;-81
2022/11/03 10:56:20;;;;;;;2.85;1.40;;;14.40;81.70;;;;;;4981553;28;20031;-81
2022/11/03 10:58:45;;;;;;;2.22;1.35;;;14.40;81.70;;;;;;4983229;28;20023;-80
2022/11/03 11:01:11;;;;;;;2.78;1.55;;;14.40;81.70;;;;;;5001264;28;20080;-81
2022/11/03 11:03:41;;;;;;;1.98;1.33;;;14.40;82.00;;;;;;4987515;28;20034;-81
2022/11/03 11:06:23;;;;;;;3.28;1.30;;;14.40;81.60;;;;;;4997934;28;20027;-81
2022/11/03 11:08:53;;;;;;;4.80;1.30;;;14.50;81.80;;;;;;4999192;28;20022;-80
2022/11/03 11:11:20;;;;;;;2.03;0.93;;;14.60;81.70;;;;;;4988441;28;20034;-82
2022/11/03 11:14:24;;;;;;;2.25;1.13;;;14.60;81.50;;;;;;5018283;28;20076;-81
2022/11/03 11:16:58;;;;;;;2.03;0.95;;;14.50;81.30;;;;;;5007412;28;20016;-80
2022/11/03 11:19:26;;;;;;;2.10;1.00;;;14.60;81.20;;;;;;5010113;28;20038;-80
2022/11/03 11:21:52;;;;;;;1.95;1.40;;;14.80;81.10;;;;;;5018407;28;20100;-81
2022/11/03 11:24:43;;;;;;;3.83;1.20;;;14.70;80.60;;;;;;5017861;28;20033;-81
2022/11/03 11:27:43;;;;;;;1.90;0.98;;;14.70;81.00;;;;;;5015429;28;20030;-80
2022/11/03 11:30:18;;;;;;;2.72;1.00;;;14.70;81.00;;;;;;5012006;28;20126;-80
2022/11/03 11:32:43;;;;;;;1.05;0.95;;;14.70;80.90;;;;;;4998497;28;20050;-80
2022/11/03 11:35:36;;;;;;;1.85;1.30;;;14.80;81.10;;;;;;4998560;28;20054;-81
2022/11/03 11:38:40;;;;;;;3.95;1.00;;;14.80;80.70;;;;;;4998299;28;20022;-82
2022/11/03 11:41:06;;;;;;;1.35;0.90;;;15.00;80.90;;;;;;4961103;28;20133;-81
2022/11/03 11:43:32;;;;;;;2.65;1.10;;;15.20;80.50;;;;;;5000275;28;20111;-81
2022/11/03 11:46:23;;;;;;;1.63;1.00;;;15.30;80.20;;;;;;5017958;28;20029;-82
2022/11/03 11:48:58;;;;;;;2.45;1.08;;;15.20;79.20;;;;;;5016098;28;20026;-80
2022/11/03 11:51:24;;;;;;;1.65;1.00;;;15.30;79.70;;;;;;5003288;28;20042;-83
2022/11/03 11:53:50;;;;;;;2.53;0.73;;;15.30;80.10;;;;;;4998173;28;20042;-82
2022/11/03 11:56:17;;;;;;;2.45;1.00;;;15.40;78.50;;;;;;4997828;28;20030;-82
2022/11/03 11:58:48;;;;;;;3.72;1.00;;;15.40;79.70;;;;;;4999483;28;20030;-83
2022/11/03 12:01:31;;;;;;;2.20;1.40;;;15.40;79.20;;;;;;5010041;28;20030;-82
2022/11/03 12:04:13;;;;;;;2.42;0.98;;;15.40;79.70;;;;;;4998460;28;20514;-82
2022/11/03 12:06:40;;;;;;;1.67;0.80;;;15.50;79.40;;;;;;4980709;28;20042;-82
2022/11/03 12:09:14;;;;;;;1.65;0.93;;;15.60;79.20;;;;;;4997874;28;20023;-82
2022/11/03 12:11:49;;;;;;;2.05;0.90;;;15.60;78.90;;;;;;4986840;28;20113;-81
2022/11/03 12:14:22;;;;;;;2.75;1.15;;;15.60;79.50;;;;;;4997580;28;20134;-82
2022/11/03 12:16:48;;;;;;;1.95;0.82;;;15.60;79.30;;;;;;5010094;28;20018;-82
2022/11/03 12:19:33;;;;;;;2.13;0.80;;;15.60;78.80;;;;;;4998065;28;20023;-82
2022/11/03 12:22:00;;;;;;;1.30;0.80;;;15.70;78.30;;;;;;5001598;28;20056;-82
2022/11/03 12:24:32;;;;;;;3.10;0.80;;;15.70;78.10;;;;;;5017386;28;20026;-82
2022/11/03 12:27:02;;;;;;;1.70;0.57;;;15.70;78.20;;;;;;4999737;28;20559;-83
2022/11/03 12:29:28;;;;;;;4.88;0.98;;;15.70;78.10;;;;;;5017120;28;20104;-82
2022/11/03 12:31:54;;;;;;;2.78;0.70;;;15.80;78.10;;;;;;5011488;28;20088;-82
2022/11/03 12:34:20;;;;;;;2.70;0.90;;;15.80;77.70;;;;;;4979925;28;20038;-82
2022/11/03 12:36:46;;;;;;;1.40;0.65;;;15.80;77.30;;;;;;4997369;28;20041;-82
2022/11/03 12:39:12;;;;;;;2.50;0.80;;;15.80;77.40;;;;;;4979864;28;20030;-81
2022/11/03 12:41:37;;;;;;;3.60;0.90;;;15.80;77.30;;;;;;4997279;28;20031;-82
2022/11/03 12:44:04;;;;;;;3.13;0.93;;;15.80;77.10;;;;;;4997229;28;20038;-82
2022/11/03 12:46:30;;;;;;;3.58;0.85;;;15.70;76.20;;;;;;4997080;28;20026;-81
2022/11/03 12:48:56;;;;;;;1.90;0.93;;;15.80;75.90;;;;;;4996809;28;20141;-82
2022/11/03 12:51:24;;;;;;;4.93;0.98;;;15.70;76.40;;;;;;4996756;28;20054;-82
2022/11/03 12:53:50;;;;;;;1.17;0.65;;;15.70;76.00;;;;;;4996710;28;20179;-82
2022/11/03 12:56:17;;;;;;;1.63;0.70;;;15.80;76.50;;;;;;5004932;28;20018;-81
2022/11/03 12:58:43;;;;;;;3.35;0.90;;;15.80;75.60;;;;;;5016507;28;20026;-82
2022/11/03 13:01:09;;;;;;;1.98;0.98;;;15.70;74.90;;;;;;5016964;28;20086;-82
2022/11/03 13:03:35;;;;;;;3.45;0.90;;;15.90;75.00;;;;;;4999942;28;20030;-82
2022/11/03 13:06:03;;;;;;;3.08;0.82;;;15.90;74.80;;;;;;4996906;28;20529;-82
2022/11/03 13:08:32;;;;;;;4.15;1.35;;;15.80;74.50;;;;;;4996537;28;20175;-82
2022/11/03 13:10:58;;;;;;;3.25;0.70;;;15.80;73.80;;;;;;4986491;28;20026;-82
2022/11/03 13:13:24;;;;;;;2.67;0.65;;;15.70;73.40;;;;;;5016144;28;20057;-82
2022/11/03 13:15:51;;;;;;;1.77;0.80;;;15.60;73.90;;;;;;4998548;28;20029;-82
2022/11/03 13:18:18;;;;;;;3.03;0.93;;;15.50;73.30;;;;;;5015865;28;20029;-82
2022/11/03 13:20:44;;;;;;;2.00;0.70;;;15.40;72.80;;;;;;5005007;28;20019;-83
2022/11/03 13:23:10;;;;;;;5.25;0.95;;;15.30;73.20;;;;;;4996673;28;20038;-82
2022/11/03 13:25:35;;;;;;;2.72;0.93;;;15.30;73.10;;;;;;4996490;28;20030;-82
2022/11/03 13:28:02;;;;;;;2.70;0.68;;;15.30;73.20;;;;;;4995868;28;20034;-82
2022/11/03 13:30:28;;;;;;;2.97;0.80;;;15.30;73.60;;;;;;4996099;28;20064;-83
2022/11/03 13:32:54;;;;;;;4.75;0.95;;;15.30;73.00;;;;;;4996375;28;20445;-81
2022/11/03 13:35:20;;;;;;;1.48;0.90;;;15.30;72.80;;;;;;4996486;28;20037;-83
2022/11/03 13:37:46;;;;;;;7.55;1.00;;;15.30;72.50;;;;;;4978927;28;20441;-80
2022/11/03 13:40:13;;;;;;;6.95;0.88;;;15.40;71.50;;;;;;4996221;28;20023;-82
2022/11/03 13:42:39;;;;;;;5.47;0.80;;;15.40;71.70;;;;;;4996354;28;20100;-82
2022/11/03 13:45:06;;;;;;;5.47;1.23;;;15.30;71.30;;;;;;4978476;28;20034;-82
2022/11/03 13:47:32;;;;;;;1.52;0.70;;;15.30;71.90;;;;;;4995929;28;20077;-82
2022/11/03 13:49:59;;;;;;;4.47;0.95;;;15.40;69.60;;;;;;4978812;28;20026;-82
2022/11/03 13:52:25;;;;;;;2.70;0.90;;;15.60;70.70;;;;;;4996224;28;20030;-80
2022/11/03 13:54:51;;;;;;;3.08;0.70;;;15.80;69.60;;;;;;4978863;28;20507;-80
2022/11/03 13:57:17;;;;;;;4.43;0.70;;;16.00;70.10;;;;;;4979057;28;20105;-80
2022/11/03 13:59:43;;;;;;;6.68;0.80;;;16.20;68.90;;;;;;5000053;28;20093;-80
2022/11/03 14:02:09;;;;;;;2.55;0.77;;;16.30;69.60;;;;;;4987831;28;20090;-80
2022/11/03 14:04:35;;;;;;;4.22;0.90;;;16.40;68.40;;;;;;5005368;28;20040;-81
2022/11/03 14:07:01;;;;;;;4.15;0.88;;;16.50;67.30;;;;;;4998479;28;20034;-81
2022/11/03 14:09:26;;;;;;;2.03;0.73;;;16.30;67.50;;;;;;5015548;28;20520;-81
2022/11/03 14:14:36;;;;;;;3.03;0.73;;;16.00;67.60;;;;;;4996357;28;20038;-82
2022/11/03 14:17:02;;;;;;;2.63;0.85;;;15.80;68.10;;;;;;4978350;28;20030;-81
2022/11/03 14:19:27;;;;;;;3.47;0.95;;;15.80;68.00;;;;;;4995699;28;20397;-82
2022/11/03 14:21:53;;;;;;;3.05;0.88;;;15.70;67.90;;;;;;4995701;28;20027;-81
2022/11/03 14:24:19;;;;;;;2.38;0.82;;;15.70;68.50;;;;;;5008070;28;20037;-81
2022/11/03 14:26:44;;;;;;;2.38;0.90;;;15.80;68.10;;;;;;4996033;28;20041;-81
2022/11/03 14:29:10;;;;;;;6.47;1.27;;;15.90;68.40;;;;;;4995919;28;20061;-81
2022/11/03 14:31:36;;;;;;;2.55;0.88;;;16.00;68.30;;;;;;4995676;28;20082;-80
2022/11/03 14:34:01;;;;;;;3.25;1.10;;;16.00;67.80;;;;;;4995861;28;20023;-81
2022/11/03 14:36:27;;;;;;;4.88;0.95;;;16.00;66.70;;;;;;4996113;28;20050;-81
2022/11/03 14:38:53;;;;;;;1.83;0.70;;;15.90;66.80;;;;;;4977376;28;20073;-81
2022/11/03 14:44:03;;;;;;;8.40;1.27;;;15.80;66.80;;;;;;4999375;28;20042;-80
2022/11/03 14:46:29;;;;;;;5.03;0.70;;;15.80;68.10;;;;;;4982375;28;20473;-81
2022/11/03 14:48:55;;;;;;;1.65;0.65;;;15.80;67.10;;;;;;4999405;28;20095;-81
2022/11/03 14:51:20;;;;;;;2.78;0.93;;;15.80;67.60;;;;;;5015250;28;20044;-80
2022/11/03 14:53:46;;;;;;;6.43;1.13;;;15.80;67.80;;;;;;5001520;28;20559;-81
2022/11/03 14:56:12;;;;;;;0.82;0.60;;;15.80;67.70;;;;;;5011036;28;20045;-81
2022/11/03 14:58:37;;;;;;;3.95;1.15;;;15.80;68.30;;;;;;4999609;28;20409;-81
2022/11/03 15:01:03;;;;;;;3.17;0.80;;;15.80;68.30;;;;;;5001577;28;20041;-81
2022/11/03 15:03:29;;;;;;;3.95;0.88;;;15.80;67.60;;;;;;4984349;28;20484;-81
2022/11/03 15:05:55;;;;;;;4.95;0.73;;;15.70;66.00;;;;;;4999081;28;20042;-80
2022/11/03 15:08:22;;;;;;;4.00;1.00;;;15.60;66.80;;;;;;4999096;28;20026;-81
2022/11/03 15:10:48;;;;;;;4.22;1.13;;;15.60;67.20;;;;;;5004901;28;20025;-80
2022/11/03 15:13:14;;;;;;;0.90;0.60;;;15.60;66.40;;;;;;5018092;28;20058;-80
2022/11/03 15:15:41;;;;;;;7.03;0.90;;;15.60;67.10;;;;;;5006345;28;20046;-80
2022/11/03 15:18:07;;;;;;;4.60;0.88;;;15.50;66.80;;;;;;4981411;28;20022;-81
2022/11/03 15:20:36;;;;;;;5.25;1.05;;;15.40;67.60;;;;;;4981300;28;20037;-81
2022/11/03 15:23:03;;;;;;;6.90;0.80;;;15.30;67.60;;;;;;4999160;28;20457;-81
2022/11/03 15:25:30;;;;;;;5.15;0.80;;;15.20;67.40;;;;;;4998516;28;21899;-81
2022/11/03 15:27:56;;;;;;;4.10;0.80;;;15.20;67.60;;;;;;4998843;28;20022;-81
2022/11/03 15:30:21;;;;;;;6.13;1.08;;;15.10;68.00;;;;;;4997888;28;20034;-81
2022/11/03 15:32:47;;;;;;;4.70;0.85;;;15.00;67.80;;;;;;4998477;28;20040;-81
2022/11/03 15:35:14;;;;;;;2.35;1.15;;;15.00;68.00;;;;;;4998613;28;20097;-80
2022/11/03 15:37:41;;;;;;;3.53;1.00;;;14.90;68.40;;;;;;4981032;28;20084;-80
2022/11/03 15:40:08;;;;;;;2.70;0.90;;;14.90;68.20;;;;;;4981364;28;20034;-79
2022/11/03 15:42:33;;;;;;;6.03;1.05;;;14.90;68.10;;;;;;4998458;28;20061;-80
2022/11/03 15:44:59;;;;;;;5.63;1.27;;;14.90;68.00;;;;;;5011220;28;20069;-79
2022/11/03 15:47:25;;;;;;;3.78;1.20;;;14.90;67.70;;;;;;4999999;28;20033;-81
2022/11/03 15:49:50;;;;;;;2.63;1.20;;;14.80;67.80;;;;;;5018011;28;20033;-80
2022/11/03 15:52:16;;;;;;;7.68;1.10;;;14.80;68.00;;;;;;5002365;28;20942;-80
2022/11/03 15:54:42;;;;;;;7.90;1.10;;;14.80;68.50;;;;;;4997661;28;20058;-81
2022/11/03 15:57:07;;;;;;;4.57;1.10;;;14.80;67.70;;;;;;5017842;28;20026;-80
2022/11/03 15:59:33;;;;;;;8.30;1.10;;;14.70;67.40;;;;;;4996586;28;20088;-81
2022/11/03 16:01:58;;;;;;;4.63;0.85;;;14.70;67.50;;;;;;5005866;28;20654;-81
2022/11/03 16:04:24;;;;;;;5.93;1.40;;;14.70;68.60;;;;;;4995959;28;20045;-81
2022/11/03 16:06:50;;;;;;;9.40;2.58;;;14.60;68.00;;;;;;5010483;28;20026;-81
2022/11/03 16:09:15;;;;;;;10.07;2.38;;;14.60;68.20;;;;;;5002289;28;20089;-81
2022/11/03 16:11:41;;;;;;;5.50;1.30;;;14.70;68.30;;;;;;5011019;28;20030;-82
2022/11/03 16:14:06;;;;;;;2.88;0.80;;;14.60;68.50;;;;;;5021946;28;20025;-82
2022/11/03 16:16:32;;;;;;;5.60;1.60;;;14.50;68.40;;;;;;5021760;28;20708;-82
2022/11/03 16:18:58;;;;;;;3.65;1.10;;;14.50;67.40;;;;;;5010281;28;20109;-90
2022/11/03 16:21:23;;;;;;;3.08;1.35;;;14.50;67.80;;;;;;5017061;28;20049;-83
2022/11/03 16:23:49;;;;;;;4.35;0.98;;;14.50;67.70;;;;;;5013574;28;20448;-83
2022/11/03 16:26:15;;;;;;;3.97;1.08;;;14.50;68.10;;;;;;5011337;28;20512;-82
2022/11/03 16:28:40;;;;;;;6.03;0.90;;;14.40;67.80;;;;;;5004517;28;20511;-82
2022/11/03 16:31:06;;;;;;;3.22;0.85;;;14.40;68.10;;;;;;4993191;28;20063;-80
2022/11/03 16:33:31;;;;;;;4.65;1.45;;;14.40;68.10;;;;;;4978054;28;20030;-77
2022/11/03 16:35:57;;;;;;;7.03;1.77;;;14.40;68.50;;;;;;4989775;28;20030;-87
2022/11/03 16:38:23;;;;;;;3.85;1.00;;;14.30;68.50;;;;;;4986581;28;20019;-86
2022/11/03 16:40:48;;;;;;;4.13;1.17;;;14.30;68.70;;;;;;4980518;28;20050;-88
2022/11/03 16:43:14;;;;;;;6.57;1.52;;;14.20;68.30;;;;;;4987636;28;20054;-90
2022/11/03 16:45:39;;;;;;;2.60;0.88;;;14.20;68.70;;;;;;4987194;28;20022;-86
2022/11/03 16:48:05;;;;;;;2.97;0.82;;;14.20;69.30;;;;;;4971055;28;20033;-87
2022/11/03 16:50:39;;;;;;;4.00;1.33;;;14.20;69.00;;;;;;4969645;28;20038;-87
2022/11/03 16:53:05;;;;;;;6.93;1.33;;;14.10;69.30;;;;;;4972916;28;20109;-80
2022/11/03 16:55:30;;;;;;;4.57;1.30;;;14.20;69.40;;;;;;4968549;28;20058;-80
2022/11/03 16:57:56;;;;;;;6.45;1.42;;;14.10;69.50;;;;;;4990368;28;20086;-80
2022/11/03 17:00:23;;;;;;;3.33;1.30;;;14.00;69.00;;;;;;4993911;28;20026;-81
2022/11/03 17:02:49;;;;;;;5.95;1.55;;;14.00;69.40;;;;;;4971284;28;20033;-80
2022/11/03 17:05:17;;;;;;;6.32;2.05;;;14.00;69.60;;;;;;4973632;28;20138;-80
2022/11/03 17:07:46;;;;;;;5.65;1.48;;;14.00;69.90;;;;;;4972514;28;20453;-79
2022/11/03 17:10:12;;;;;;;7.93;2.08;;;14.00;69.80;;;;;;4980043;28;20044;-80
2022/11/03 17:12:37;;;;;;;6.20;1.60;;;13.90;69.80;;;;;;4995348;28;20018;-82
2022/11/03 17:15:04;;;;;;;5.85;1.05;;;13.90;69.90;;;;;;4993677;28;20049;-83
2022/11/03 17:17:30;;;;;;;8.07;1.33;;;13.90;70.00;;;;;;4992671;28;20019;-81
2022/11/03 17:19:56;;;;;;;4.40;1.38;;;13.90;70.10;;;;;;4966703;28;20085;-82
2022/11/03 17:22:21;;;;;;;7.22;1.65;;;13.80;70.30;;;;;;4983984;28;20025;-79
2022/11/03 17:24:47;;;;;;;3.63;1.75;;;13.80;70.40;;;;;;4959358;28;20756;-76
2022/11/03 17:27:15;;;;;;;4.35;1.70;;;13.70;70.60;;;;;;4974255;28;20091;-77
2022/11/03 17:29:47;;;;;;;7.35;2.38;;;13.70;70.60;;;;;;4982772;28;20037;-76
2022/11/03 17:32:24;;;;;;;7.32;1.83;;;13.70;70.90;;;;;;4983533;28;20054;-76
2022/11/03 17:34:52;;;;;;;8.68;1.52;;;13.60;70.90;;;;;;5008039;28;20488;-77
2022/11/03 17:37:18;;;;;;;6.38;1.30;;;13.60;71.00;;;;;;5008758;28;20026;-77
2022/11/03 17:39:43;;;;;;;2.67;2.00;;;13.70;71.20;;;;;;4993725;28;20468;-77
2022/11/03 17:42:20;;;;;;;4.35;1.30;;;13.60;71.30;;;;;;5014311;28;20407;-77
2022/11/03 17:44:48;;;;;;;8.32;1.98;;;13.60;71.40;;;;;;4992020;28;20030;-79
2022/11/03 17:47:34;;;;;;;10.40;1.75;;;13.60;71.40;;;;;;5010772;28;20104;-77
2022/11/03 17:50:00;;;;;;;5.65;1.50;;;13.60;71.40;;;;;;4999790;28;20109;-76
2022/11/03 17:52:27;;;;;;;4.38;1.02;;;13.70;71.20;;;;;;5011260;28;20440;-76
2022/11/03 17:54:54;;;;;;;4.43;1.50;;;13.50;71.40;;;;;;4985886;28;20026;-76
2022/11/03 17:57:24;;;;;;;2.05;1.20;;;13.60;71.10;;;;;;4970555;28;20029;-76
2022/11/03 17:59:53;;;;;;;7.07;1.30;;;13.60;71.50;;;;;;4989711;28;20033;-76
2022/11/03 18:02:23;;;;;;;3.70;1.17;;;13.60;71.80;;;;;;5007153;28;20499;-76
2022/11/03 18:04:52;;;;;;;2.95;0.93;;;13.60;71.80;;;;;;5014338;28;20034;-77
2022/11/03 18:07:25;;;;;;;3.58;1.08;;;13.50;72.00;;;;;;4981650;28;20034;-76
2022/11/03 18:09:52;;;;;;;4.32;1.50;;;13.50;72.30;;;;;;5017268;28;20603;-77
2022/11/03 18:15:14;;;;;;;3.38;1.52;;;13.50;73.10;;;;;;5014925;28;20064;-79
2022/11/03 18:17:40;;;;;;;8.00;1.25;;;13.50;73.40;;;;;;5008691;28;20029;-77
2022/11/03 18:20:13;;;;;;;8.18;1.75;;;13.50;73.70;;;;;;4995836;28;20048;-80
2022/11/03 18:22:38;;;;;;;10.23;2.13;;;13.50;74.10;;;;;;5016292;28;20152;-79
2022/11/03 18:25:15;;;;;;;7.43;1.20;;;13.60;74.30;;;;;;5014958;28;20065;-81
2022/11/03 18:27:41;;;;;;;4.05;1.67;;;13.60;74.40;;;;;;5017425;28;20092;-78
2022/11/03 18:30:08;;;;;;;7.15;1.58;;;13.60;74.90;;;;;;5015902;28;20025;-79
2022/11/03 18:32:35;;;;;;;10.63;1.50;;;13.60;75.00;;;;;;5017031;28;20042;-81